CheckWX is a tool to help pilots better visualize weather data.  It is not intended as a substitute for an official pre-flight weather briefing.

14:37:02 UTC

RJSK METAR
Akita Airport
Akita, Japan
Current

3 hours ago

RJSK 211200Z VRB01KT 9999 FEW030 BKN045 03/M01 Q1033
Observed
Nov-21 @ 12:00 UTC
Wind
  • Variable at 1 KTS
Visibility
10,000+ meters
Flight Rules
VFR
Cloud Levels
  • Few at 3,000' AGL
  • Broken at 4,500' AGL
Temperature
C / 37°F
Dewpoint
-1°C / 30°F
Humidity
75%
Altimeter
30.5" Hg
Pressure
1032.92 hPa
Previous

4 hours ago

RJSK 211100Z VRB01KT 9999 FEW030 SCT045 03/M01 Q1032
Observed
Nov-21 @ 11:00 UTC
Wind
  • Variable at 1 KTS
Visibility
10,000+ meters
Flight Rules
VFR
Cloud Levels
  • Few at 3,000' AGL
  • Scattered at 4,500' AGL
Temperature
C / 37°F
Dewpoint
-1°C / 30°F
Humidity
75%
Altimeter
30.47" Hg
Pressure
1031.92 hPa
Previous

5 hours ago

RJSK 211000Z VRB02KT 9999 FEW030 BKN045 04/M01 Q1032
Observed
Nov-21 @ 10:00 UTC
Wind
  • Variable at 2 KTS
Visibility
10,000+ meters
Flight Rules
VFR
Cloud Levels
  • Few at 3,000' AGL
  • Broken at 4,500' AGL
Temperature
C / 39°F
Dewpoint
-1°C / 30°F
Humidity
70%
Altimeter
30.47" Hg
Pressure
1031.92 hPa